Dorothy Ann — WDE8761 — position and weather

sailwx.info

Track history (hours):
 
Tides and Currents Weather Stations Pressure Air Temp Water Temp Dewpoint Dewpoint Depression Visibility Wind Speed Wind Dir Waves Ship Positions

Dorothy Ann

Owner: THE INTERLAKE STEAMSHIP COMPANY, Middleburg Heights, OH. More information available from US FCC via Universal Licensing System and Coast Guard Vessel Documentation Center.

Last reported at 2018-Apr-09 08:00 UTC. Time now 2018-Apr-24 02:37 UTC.
Position N 42°06' W 080°06'.
Warning: this ship's position is 14 days out of date.

Length 215 m; draft 6.1 m.

Type: Cargo ship. MMSI: 367409260.

Wind from 020 at 2 knots

Barometer 1021.5 mb
Air temperature -1.0 ° C
Water temperature 18.4 ° C

Date/timePositionNaut miles runAvg speedWind from/ knotsBaromVisibWave heightAir tempDewpointWater temp
2018-Apr-09 08:00N 42°06' W 080°06'0 0.0 020 / 21021.5 -1.0 18.4
2018-Apr-09 07:00N 42°06' W 080°06'0 0.0 040 / 31021.5 -1.4 18.4
2018-Apr-09 06:00N 42°06' W 080°06'0 0.0 240 / 31021.5 -1.2 18.5
2018-Apr-09 05:00N 42°06' W 080°06'0 0.0 240 / 21021.2 -1.0 18.3
2018-Apr-09 04:00N 42°06' W 080°06'0 0.0 270 / 51021.5 -1.0 17.5
2018-Apr-09 03:00N 42°06' W 080°06'0 0.0 270 / 31021.2 -1.0 18.7
2018-Apr-09 02:00N 42°06' W 080°06'0 0.0 320 / 31020.5 -0.8 18.7
2018-Apr-09 01:00N 42°06' W 080°06'0 0.0 280 / 41020.8 -0.9 18.4
2018-Apr-09 00:00N 42°06' W 080°06'0 0.0 270 / 61020.5 -0.7 18.4
2018-Apr-08 23:00N 42°06' W 080°06'0 0.0 270 / 61020.1 -0.4 18.5
2018-Apr-08 22:00N 42°06' W 080°06'0 0.0 280 / 91019.8 -0.9 18.3
2018-Apr-08 21:00N 42°06' W 080°06'0 0.0 290 / 71019.5 -0.2 18.3
2018-Apr-08 20:00N 42°06' W 080°06'0 0.0 270 / 121019.1 -0.4 18.5
2018-Apr-08 19:00N 42°06' W 080°06'0 0.0 270 / 111018.8 -0.4 18.6
2018-Apr-08 18:00N 42°06' W 080°06'0 0.0 310 / 91018.5 -0.8 18.4
2018-Apr-08 17:00N 42°06' W 080°06'0 0.0 300 / 91018.8 -1.6 18.3
2018-Apr-08 16:00N 42°06' W 080°06'0 0.0 310 / 81018.8 -2.2 18.7
2018-Apr-08 15:00N 42°06' W 080°06'0 0.0 310 / 111018.1 -2.5 18.9
2018-Apr-08 14:00N 42°06' W 080°06'0 0.0 330 / 141017.8 -2.6 18.9
2018-Apr-08 13:00N 42°06' W 080°06'0 0.0 340 / 141017.4 -2.3 18.9
2018-Apr-08 12:00N 42°06' W 080°06'0 0.0 350 / 111017.1 -2.6 18.8
2018-Apr-08 11:00N 42°06' W 080°06'0 0.0 340 / 141016.4 -2.3 18.8
2018-Apr-08 10:00N 42°06' W 080°06'0 0.0 300 / 91016.1 -1.6 18.9
2018-Apr-08 09:00N 42°06' W 080°06'0 0.0 320 / 101015.7 -1.7 18.9
2018-Apr-08 08:00N 42°06' W 080°06'0 0.0 350 / 101015.4 -1.6 18.9
2018-Apr-08 07:00N 42°06' W 080°06'0 0.0 360 / 81015.4 -1.6 19.0
2018-Apr-08 06:00N 42°06' W 080°06'0 0.0 340 / 91015.4 -1.9 19.1
2018-Apr-08 05:00N 42°06' W 080°06'0 0.0 350 / 111015.7 -1.5 19.3
2018-Apr-08 04:00N 42°06' W 080°06'0 0.0 150 / 51016.1 -1.3 19.3
2018-Apr-08 03:00N 42°06' W 080°06'0 0.0 120 / 51016.4 -1.3 19.3
2018-Apr-08 02:00N 42°06' W 080°06'0 0.0 220 / 31016.4 -1.1 19.2
2018-Apr-08 01:00N 42°06' W 080°06'0 0.0 220 / 61016.4 -1.4 19.2
2018-Apr-08 00:00N 42°06' W 080°06'0 0.0 230 / 71016.4 -1.3 19.3
2018-Apr-07 23:00N 42°06' W 080°06'0 0.0 260 / 111016.8 -1.4 19.2
2018-Apr-07 22:00N 42°06' W 080°06'0 0.0 260 / 91017.1 -1.2 19.0
2018-Apr-07 21:00N 42°06' W 080°06'0 0.0 260 / 121017.1 -1.6 19.2
2018-Apr-07 20:00N 42°06' W 080°06'0 0.0 270 / 111017.1 -1.8 19.2
2018-Apr-07 19:00N 42°06' W 080°06'0 0.0 280 / 111017.1 -2.2 19.3
2018-Apr-07 18:00N 42°06' W 080°06'0 0.0 280 / 111017.4 -2.6 19.2
2018-Apr-07 17:00N 42°06' W 080°06'0 0.0 290 / 131017.8 -2.8 19.3
2018-Apr-07 16:00N 42°06' W 080°06'0 0.0 280 / 121018.1 -2.8 19.1
2018-Apr-07 15:00N 42°06' W 080°06'0 0.0 270 / 131018.1 -3.3 19.0
2018-Apr-07 14:00N 42°06' W 080°06'0 0.0 310 / 121018.1 -3.0 19.1
2018-Apr-07 13:00N 42°06' W 080°06'0 0.0 320 / 141018.1 -3.0 19.1
2018-Apr-07 12:00N 42°06' W 080°06'0 0.0 290 / 121017.8 -3.0 19.1
2018-Apr-07 11:00N 42°06' W 080°06'0 0.0 320 / 71017.1 -2.9 19.1
2018-Apr-07 10:00N 42°06' W 080°06'0 0.0 330 / 111016.8 -2.4 19.0
2018-Apr-07 09:00N 42°06' W 080°06'0 0.0 290 / 81016.1 -2.3 19.1
2018-Apr-07 07:00N 42°06' W 080°06'0 0.0 270 / 91015.4 -1.5 18.9
2018-Apr-07 06:00N 42°06' W 080°06'0 0.0 310 / 191015.1 -1.1 19.1
2018-Apr-07 05:00N 42°06' W 080°06'0 0.0 270 / 71014.4 -1.3 19.2
2018-Apr-07 04:00N 42°06' W 080°06'0 0.0 320 / 91013.4 -1.3 19.1
2018-Apr-07 03:00N 42°06' W 080°06'0 0.0 290 / 151012.4 0.1 19.2
2018-Apr-07 02:00N 42°06' W 080°06'0 0.0 300 / 181011.7 0.3 19.3
2018-Apr-07 01:00N 42°06' W 080°06'0 0.0 250 / 141010.3 2.1 19.2
2018-Apr-07 00:00N 42°06' W 080°06'0 0.0 270 / 201009.6 0.1 19.4
2018-Apr-06 23:00N 42°06' W 080°06'0 0.0 280 / 201009.0 3.2 19.5
2018-Apr-06 22:00N 42°06' W 080°06'0 0.0 260 / 181008.0 3.9 19.3
2018-Apr-06 21:00N 42°06' W 080°06'0 0.0 240 / 191007.6 4.3 19.3
2018-Apr-06 20:00N 42°06' W 080°06'0 0.0 240 / 211007.3 4.2 19.3
2018-Apr-06 19:00N 42°06' W 080°06'0 0.0 250 / 171007.6 3.8 19.2
2018-Apr-06 18:00N 42°06' W 080°06'0 0.0 240 / 211007.6 3.4 19.3
2018-Apr-06 17:00N 42°06' W 080°06'0 0.0 250 / 171007.3 3.7 19.4
2018-Apr-06 16:00N 42°06' W 080°06'0 0.0 250 / 171007.3 4.0 19.4
2018-Apr-06 15:00N 42°06' W 080°06'0 0.0 240 / 181006.9 5.5 18.9
2018-Apr-06 14:00N 42°06' W 080°06'0 0.0 220 / 121007.6 4.5 19.1
2018-Apr-06 13:00N 42°06' W 080°06'0 0.0 220 / 151007.6 2.9 19.1
2018-Apr-06 12:00N 42°06' W 080°06'0 0.0 090 / 61009.3 1.0 19.2
2018-Apr-06 11:00N 42°06' W 080°06'0 0.0 160 / 91010.7 -0.0 19.2
2018-Apr-06 10:00N 42°06' W 080°06'0 0.0 160 / 81012.0 -0.4 19.2
2018-Apr-06 09:00N 42°06' W 080°06'0 0.0 160 / 121013.4 1.0 19.2
2018-Apr-06 08:00N 42°06' W 080°06'0 0.0 170 / 111014.4 1.2 19.2
2018-Apr-06 07:00N 42°06' W 080°06'0 0.0 170 / 121015.7 0.8 19.3
2018-Apr-06 06:00N 42°06' W 080°06'0 0.0 170 / 121016.8 1.1 19.3
2018-Apr-06 05:00N 42°06' W 080°06'0 0.0 160 / 121017.1 1.1 19.3
2018-Apr-06 04:00N 42°06' W 080°06'0 0.0 170 / 101017.8 0.8 19.4
2018-Apr-06 03:00N 42°06' W 080°06'0 0.0 150 / 81017.8 0.6 19.4
2018-Apr-06 02:00N 42°06' W 080°06'0 0.0 170 / 81018.1 0.8 19.3
2018-Apr-06 01:00N 42°06' W 080°06'0 0.0 180 / 51018.8 0.7 19.3
2018-Apr-06 00:00N 42°06' W 080°06'0 0.0 240 / 51019.5 0.6 19.4
2018-Apr-05 23:00N 42°06' W 080°06'0 0.0 280 / 71020.1 0.8 19.5
2018-Apr-05 22:00N 42°06' W 080°06'0 0.0 250 / 131020.5 0.7 19.4
2018-Apr-05 21:00N 42°06' W 080°06'0 0.0 260 / 161020.8 0.5 19.4
2018-Apr-05 20:00N 42°06' W 080°06'0 0.0 260 / 181021.5 0.2 19.4
2018-Apr-05 19:00N 42°06' W 080°06'0 0.0 290 / 161022.2 -0.4 19.5
2018-Apr-05 18:00N 42°06' W 080°06'0 0.0 270 / 191021.8 -0.5 19.4
2018-Apr-05 17:00N 42°06' W 080°06'0 0.0 280 / 141022.2 -1.1 19.4
2018-Apr-05 16:00N 42°06' W 080°06'0 0.0 280 / 141022.2 -1.6 19.5
2018-Apr-05 15:00N 42°06' W 080°06'0 0.0 270 / 141022.2 -0.9 19.3
2018-Apr-05 14:00N 42°06' W 080°06'0 0.0 270 / 151021.8 -1.1 19.4
2018-Apr-05 13:00N 42°06' W 080°06'0 0.0 270 / 121021.8 -1.3 19.4
2018-Apr-05 12:00N 42°06' W 080°06'0 0.0 280 / 151021.5 -1.7 19.2
2018-Apr-05 11:00N 42°06' W 080°06'0 0.0 290 / 201021.2 -1.7 19.3
2018-Apr-05 10:00N 42°06' W 080°06'0 0.0 280 / 161021.2 -1.8 19.3
2018-Apr-05 09:00N 42°06' W 080°06'0 0.0 290 / 191021.2 -2.2 19.3
2018-Apr-05 08:00N 42°06' W 080°06'0 0.0 270 / 151021.2 -1.9 19.4
2018-Apr-05 07:00N 42°06' W 080°06'0 0.0 290 / 221020.5 -1.8 19.6
2018-Apr-05 06:00N 42°06' W 080°06'0 0.0 300 / 191020.5 -2.0 19.6
2018-Apr-05 05:00N 42°06' W 080°06'0 0.0 280 / 181020.1 -1.9 19.7
2018-Apr-05 04:00N 42°06' W 080°06'0 0.0 290 / 201019.8 -1.3 19.8
2018-Apr-05 03:00N 42°06' W 080°06'0 0.0 260 / 201019.5 -1.4 19.6
2018-Apr-05 02:00N 42°06' W 080°06'0 0.0 300 / 231018.5 -0.3 19.6
2018-Apr-05 01:00N 42°06' W 080°06'0 0.0 290 / 221017.1 -0.1 19.6
2018-Apr-05 00:00N 42°06' W 080°06'0 0.0
2018-Apr-04 23:00N 42°06' W 080°06'0 0.0 280 / 301013.7 0.8 19.6
2018-Apr-04 22:00N 42°06' W 080°06'0 0.0 250 / 271012.7 0.7 19.7
2018-Apr-04 21:00N 42°06' W 080°06'0 0.0 270 / 291011.3 1.3 19.6
2018-Apr-04 20:00N 42°06' W 080°06'0 0.0 260 / 341010.3 1.0 19.6
2018-Apr-04 19:00N 42°06' W 080°06'0 0.0 260 / 321008.6 1.9 19.7
2018-Apr-04 18:00N 42°06' W 080°06'0 0.0 260 / 281007.6 1.5 19.7
2018-Apr-04 17:00N 42°06' W 080°06'0 0.0 250 / 271005.9 1.6 19.8
2018-Apr-04 16:00N 42°06' W 080°06'0 0.0 240 / 341004.2 2.7 19.8
2018-Apr-04 15:00N 42°06' W 080°06'0 0.0 240 / 341002.5 3.5 19.8
2018-Apr-04 14:00N 42°06' W 080°06'0 0.0 240 / 341001.2 4.0 19.9
2018-Apr-04 13:00N 42°06' W 080°06'0 0.0 250 / 31999.8 4.0 19.8
2018-Apr-04 12:00N 42°06' W 080°06'0 0.0 250 / 34999.5 3.0 19.8
2018-Apr-04 11:00N 42°06' W 080°06'0 0.0 250 / 30999.1 3.8 19.9
2018-Apr-04 10:00N 42°06' W 080°06'0 0.0 250 / 19997.5 3.8 19.9
2018-Apr-04 09:00N 42°06' W 080°06'0 0.0 250 / 23996.1 4.8 19.8
2018-Apr-04 08:00N 42°06' W 080°06'0 0.0 260 / 21995.4 6.7 19.8
2018-Apr-04 07:00N 42°06' W 080°06'0 0.0 190 / 12994.1 15.9 19.8
2018-Apr-04 06:00N 42°06' W 080°06'0 0.0 180 / 9995.4 15.1 19.6
2018-Apr-04 05:00N 42°06' W 080°06'0 0.0 200 / 14996.8 14.3 19.7
2018-Apr-04 04:00N 42°06' W 080°06'0 0.0 210 / 22997.1 15.9 19.7
2018-Apr-04 03:00N 42°06' W 080°06'0 0.0 200 / 13997.5 15.9 19.7
2018-Apr-04 02:00N 42°06' W 080°06'0 0.0 190 / 12998.5 15.6 19.6
2018-Apr-04 01:00N 42°06' W 080°06'0 0.0 180 / 6999.5 7.8 19.6
2018-Apr-04 00:00N 42°06' W 080°06'0 0.0 090 / 61001.9 2.3 19.8
2018-Apr-03 23:00N 42°06' W 080°06'0 0.0 080 / 91002.5 2.0 19.9
2018-Apr-03 22:00N 42°06' W 080°06'0 0.0 080 / 71002.9 3.1 19.9
2018-Apr-03 21:00N 42°06' W 080°06'0 0.0 080 / 91005.6 2.0 20.0
2018-Apr-03 20:00N 42°06' W 080°06'0 0.0 050 / 91006.9 2.0 20.1
2018-Apr-03 19:00N 42°06' W 080°06'0 0.0 070 / 71008.0 2.2 20.0
2018-Apr-03 18:00N 42°06' W 080°06'0 0.0 060 / 111009.3 1.5 20.0
2018-Apr-03 17:00N 42°06' W 080°06'0 0.0 050 / 131010.0 1.5 20.0
2018-Apr-03 16:00N 42°06' W 080°06'0 0.0 070 / 131010.3 1.3 20.1
2018-Apr-03 15:00N 42°06' W 080°06'0 0.0 050 / 101012.0 1.6 20.1
2018-Apr-03 14:00N 42°06' W 080°06'0 0.0 060 / 81012.0 1.7 20.0
2018-Apr-03 13:00N 42°06' W 080°06'0 0.0 030 / 41012.4 2.9 20.0
2018-Apr-03 12:00N 42°06' W 080°06'0 0.0 070 / 31013.4 3.0 20.0
2018-Apr-03 11:00N 42°06' W 080°06'0 0.0 050 / 31013.4 2.7 20.0
2018-Apr-03 10:00N 42°06' W 080°06'0 0.0 070 / 61013.4 3.6 19.7
2018-Apr-03 09:00N 42°06' W 080°06'0 0.0 100 / 61015.1 3.6 19.7
2018-Apr-03 08:00N 42°06' W 080°06'0 0.0 080 / 41015.7 2.3 20.1
2018-Apr-03 07:00N 42°06' W 080°06'0 0.0 070 / 51016.8 1.8 20.2
2018-Apr-03 06:00N 42°06' W 080°06'0 0.0 080 / 51017.1 1.6 20.2
2018-Apr-03 05:00N 42°06' W 080°06'0 0.0 060 / 31018.1 1.9 19.9
2018-Apr-03 04:00N 42°06' W 080°06'0 0.0 040 / 11017.8 2.4 19.9
2018-Apr-03 03:00N 42°06' W 080°06'0 0.0 060 / 31018.5 1.7 20.0
2018-Apr-03 02:00N 42°06' W 080°06'0 0.0 100 / 31019.1 1.8 20.0
2018-Apr-03 01:00N 42°06' W 080°06'0 0.0 130 / 41018.8 1.5 20.0
2018-Apr-03 00:00N 42°06' W 080°06'0 0.0 040 / 11019.8 0.9 20.0
2018-Apr-02 23:00N 42°06' W 080°06'0 0.0 100 / 11019.8 0.9 20.2
2018-Apr-02 22:00N 42°06' W 080°06'0 0.0 340 / 51019.8 0.5 20.1
2018-Apr-02 21:00N 42°06' W 080°06'0 0.0 280 / 31019.8 0.9 20.0
2018-Apr-02 20:00N 42°06' W 080°06'0 0.0 280 / 31020.5 1.0 20.0
2018-Apr-02 19:00N 42°06' W 080°06'0 0.0 310 / 71021.2 0.8 20.1
2018-Apr-02 18:00N 42°06' W 080°06'0 0.0 310 / 81021.2 0.4 19.9
2018-Apr-02 17:00N 42°06' W 080°06'0 0.0 300 / 91021.2 0.4 19.7
2018-Apr-02 16:00N 42°06' W 080°06'0 0.0 280 / 61021.2 0.2 19.7
2018-Apr-02 15:00N 42°06' W 080°06'0 0.0 270 / 61021.5 0.2 19.8
2018-Apr-02 14:00N 42°06' W 080°06'0 0.0 320 / 51021.2 0.3 19.7
2018-Apr-02 13:00N 42°06' W 080°06'0 0.0 320 / 61020.5 0.1 19.6
2018-Apr-02 12:00N 42°06' W 080°06'0 0.0 310 / 61020.1 0.6 19.7
2018-Apr-02 11:00N 42°06' W 080°06'0 0.0 220 / 31019.5 0.3 19.5
2018-Apr-02 10:00N 42°06' W 080°06'0 0.0 230 / 41019.5 0.5 19.6
2018-Apr-02 09:00N 42°06' W 080°06'0 0.0 210 / 31018.8 0.1 19.7
2018-Apr-02 08:00N 42°06' W 080°06'0 0.0 210 / 41018.5 0.4 19.7
2018-Apr-02 07:00N 42°06' W 080°06'0 0.0 230 / 41018.5 1.0 19.8
2018-Apr-02 06:00N 42°06' W 080°06'0 0.0 140 / 51018.8 1.2 19.9
2018-Apr-02 05:00N 42°06' W 080°06'0 0.0 170 / 71018.8 1.1 19.8
2018-Apr-02 04:00N 42°06' W 080°06'0 0.0 180 / 71019.5 1.0 19.5
2018-Apr-02 03:00N 42°06' W 080°06'0 0.0 110 / 41019.8 0.8 19.6
2018-Apr-02 02:00N 42°06' W 080°06'0 0.0 060 / 21020.1 0.8 19.5
2018-Apr-02 01:00N 42°06' W 080°06'0 0.0 240 / 21020.5 0.7 19.6
2018-Apr-02 00:00N 42°06' W 080°06'0 0.0 230 / 41020.8 0.3 19.6
2018-Apr-01 23:00N 42°06' W 080°06'0 0.0 250 / 21021.5 0.1 19.6
2018-Apr-01 22:00N 42°06' W 080°06'0 0.0 250 / 41022.2 -0.3 19.6
2018-Apr-01 21:00N 42°06' W 080°06'0 0.0 270 / 51022.5 -0.4 19.6
2018-Apr-01 20:00N 42°06' W 080°06'0 0.0 280 / 81022.5 -0.6 19.5
2018-Apr-01 19:00N 42°06' W 080°06'0 0.0 290 / 91022.5 -1.2 19.4
2018-Apr-01 18:00N 42°06' W 080°06'0 0.0 300 / 91022.9 -1.2 19.4
2018-Apr-01 17:00N 42°06' W 080°06'0 0.0 290 / 61023.2 -1.0 19.6
2018-Apr-01 16:00N 42°06' W 080°06'0 0.0 280 / 71023.2 -1.2 19.3
2018-Apr-01 15:00N 42°06' W 080°06'0 0.0 310 / 91023.2 -1.2 19.3
2018-Apr-01 14:00N 42°06' W 080°06'0 0.0 290 / 141022.2 -1.3 19.2
2018-Apr-01 13:00N 42°06' W 080°06'0 0.0 330 / 161021.8 -0.8 19.2
2018-Apr-01 12:00N 42°06' W 080°06'0 0.0 310 / 141020.8 -0.4 19.3
2018-Apr-01 11:00N 42°06' W 080°06'0 0.0 310 / 121019.8 -0.2 19.2
2018-Apr-01 10:00N 42°06' W 080°06'0 0.0 330 / 111019.5 -0.2 19.3
2018-Apr-01 09:00N 42°06' W 080°06'0 0.0 310 / 131019.1 -0.2 19.2
2018-Apr-01 08:00N 42°06' W 080°06'0 0.0 270 / 151018.1 0.2 19.2
2018-Apr-01 07:00N 42°06' W 080°06'0 0.0 300 / 161017.1 1.3 19.4
2018-Apr-01 06:00N 42°06' W 080°06'0 0.0 280 / 91015.4 1.6 19.3
2018-Apr-01 05:00N 42°06' W 080°06'0 0.0 260 / 211013.0 4.9 19.0
2018-Apr-01 04:00N 42°06' W 080°06'0 0.0 240 / 161011.7 10.1 18.9
2018-Apr-01 03:00N 42°06' W 080°06'0 0.0 200 / 131011.7 11.7 19.3
2018-Apr-01 02:00N 42°06' W 080°06'0 0.0 210 / 131012.0 11.5 19.2
2018-Apr-01 01:00N 42°06' W 080°06'0 0.0 230 / 171012.0 10.8 19.1
2018-Apr-01 00:00N 42°06' W 080°06'0 0.0 210 / 151012.0 10.2 19.0
2018-Mar-31 23:00N 42°06' W 080°06'0 0.0 220 / 161012.0 9.9 19.0
2018-Mar-31 22:00N 42°06' W 080°06'0 0.0 210 / 171012.0 10.6 19.1
2018-Mar-31 21:00N 42°06' W 080°06'0 0.0 210 / 161012.7 11.3 19.2
2018-Mar-31 20:00N 42°06' W 080°06'0 0.0 170 / 121014.4 11.4 19.0
2018-Mar-31 19:00N 42°06' W 080°06'0 0.0 200 / 161016.4 10.9 19.1
2018-Mar-31 18:00N 42°06' W 080°06'0 0.0 220 / 91018.5 10.7 19.1
2018-Mar-31 17:00N 42°06' W 080°06'0 0.0 210 / 131020.1 9.2 19.1
2018-Mar-31 16:00N 42°06' W 080°06'0 0.0 220 / 91021.5 7.8 19.2
2018-Mar-31 13:00N 42°06' W 080°06'0 0.0 160 / 121023.2 2.9 19.0
2018-Mar-31 12:00N 42°06' W 080°06'6 6.0 160 / 131024.5 1.0 18.9
2018-Mar-31 11:00N 42°12' W 080°06'0 0.0 180 / 121024.2 -0.1 17.9
2018-Mar-31 10:00N 42°12' W 080°06'9 8.9 190 / 131024.2 -0.5 17.3
2018-Mar-31 09:00N 42°12' W 080°18'7 7.5 190 / 121024.2 -0.3 17.3
2018-Mar-31 08:00N 42°06' W 080°24'4 4.5 180 / 121024.2 -0.8 17.2
2018-Mar-31 07:00N 42°06' W 080°30'4 4.5 200 / 101024.2 -0.2 17.4
2018-Mar-31 06:00N 42°06' W 080°36'1110.7 200 / 101024.5 -0.1 17.3
2018-Mar-31 05:00N 42°00' W 080°48'4 4.5 220 / 111024.5 0.2 17.5
2018-Mar-31 04:00N 42°00' W 080°54'1110.8 220 / 101024.5 0.2 17.5
2018-Mar-31 03:00N 41°54' W 081°06'4 4.5 200 / 81024.2 0.5 17.6
2018-Mar-31 02:00N 41°54' W 081°12'4 4.5 220 / 81024.5 0.8 17.6
2018-Mar-31 01:00N 41°54' W 081°18'7 7.5 220 / 71023.9 0.9 17.7
2018-Mar-31 00:00N 41°48' W 081°24'4 4.5 230 / 81023.5 1.0 17.8
2018-Mar-30 23:00N 41°48' W 081°30'7 7.5 260 / 61023.5 1.5 18.2
2018-Mar-30 22:00N 41°42' W 081°36'7 7.5 300 / 91023.2 2.1 18.5
2018-Mar-30 21:00N 41°36' W 081°42'6 6.0 300 / 111022.9 2.1 18.0
2018-Mar-30 20:00N 41°30' W 081°42'0 0.0 310 / 141022.5 0.7 21.2
2018-Mar-30 19:00N 41°30' W 081°42'0 0.0 310 / 101022.2 0.5 21.4
2018-Mar-30 18:00N 41°30' W 081°42'0 0.0 350 / 131022.2 0.4 21.5
2018-Mar-30 17:00N 41°30' W 081°42'0 0.0 340 / 141021.5 0.3 21.4
2018-Mar-30 16:00N 41°30' W 081°42'0 0.0 1021.2 0.5 21.5
2018-Mar-30 15:00N 41°30' W 081°42'0 0.0 350 / 141020.8 0.5 21.4
2018-Mar-30 14:00N 41°30' W 081°42'0 0.0 360 / 191019.5 0.4 21.5
2018-Mar-30 13:00N 41°30' W 081°42'0 0.0 360 / 171018.8 0.7 21.5
2018-Mar-30 12:00N 41°30' W 081°42'0 0.0 1017.1 0.8 21.6
2018-Mar-30 11:00N 41°30' W 081°42'0 0.0 350 / 151016.1 1.3 21.6
2018-Mar-30 10:00N 41°30' W 081°42'0 0.0 020 / 121015.4 1.7 21.7
2018-Mar-30 09:00N 41°30' W 081°42'0 0.0 020 / 131015.4 1.8 21.8
2018-Mar-30 08:00N 41°30' W 081°42'   020 / 141014.0 2.1 21.7
Track history (hours):
 
Tides and Currents Weather Stations Pressure Air Temp Water Temp Dewpoint Dewpoint Depression Visibility Wind Speed Wind Dir Waves Ship Positions

Dorothy Ann

Owner: THE INTERLAKE STEAMSHIP COMPANY, Middleburg Heights, OH. More information available from US FCC via Universal Licensing System and Coast Guard Vessel Documentation Center.

Last reported at 2018-Apr-09 08:00 UTC. Time now 2018-Apr-24 02:37 UTC.
Position N 42°06' W 080°06'.
Warning: this ship's position is 14 days out of date.

Length 215 m; draft 6.1 m.

Type: Cargo ship. MMSI: 367409260.

Wind from 020 at 2 knots

Barometer 1021.5 mb
Air temperature -1.0 ° C
Water temperature 18.4 ° C

Date/timePositionNaut miles runAvg speedWind from/ knotsBaromVisibWave heightAir tempDewpointWater temp
2018-Apr-09 08:00N 42°06' W 080°06'0 0.0 020 / 21021.5 -1.0 18.4
2018-Apr-09 07:00N 42°06' W 080°06'0 0.0 040 / 31021.5 -1.4 18.4
2018-Apr-09 06:00N 42°06' W 080°06'0 0.0 240 / 31021.5 -1.2 18.5
2018-Apr-09 05:00N 42°06' W 080°06'0 0.0 240 / 21021.2 -1.0 18.3
2018-Apr-09 04:00N 42°06' W 080°06'0 0.0 270 / 51021.5 -1.0 17.5
2018-Apr-09 03:00N 42°06' W 080°06'0 0.0 270 / 31021.2 -1.0 18.7
2018-Apr-09 02:00N 42°06' W 080°06'0 0.0 320 / 31020.5 -0.8 18.7
2018-Apr-09 01:00N 42°06' W 080°06'0 0.0 280 / 41020.8 -0.9 18.4
2018-Apr-09 00:00N 42°06' W 080°06'0 0.0 270 / 61020.5 -0.7 18.4
2018-Apr-08 23:00N 42°06' W 080°06'0 0.0 270 / 61020.1 -0.4 18.5
2018-Apr-08 22:00N 42°06' W 080°06'0 0.0 280 / 91019.8 -0.9 18.3
2018-Apr-08 21:00N 42°06' W 080°06'0 0.0 290 / 71019.5 -0.2 18.3
2018-Apr-08 20:00N 42°06' W 080°06'0 0.0 270 / 121019.1 -0.4 18.5
2018-Apr-08 19:00N 42°06' W 080°06'0 0.0 270 / 111018.8 -0.4 18.6
2018-Apr-08 18:00N 42°06' W 080°06'0 0.0 310 / 91018.5 -0.8 18.4
2018-Apr-08 17:00N 42°06' W 080°06'0 0.0 300 / 91018.8 -1.6 18.3
2018-Apr-08 16:00N 42°06' W 080°06'0 0.0 310 / 81018.8 -2.2 18.7
2018-Apr-08 15:00N 42°06' W 080°06'0 0.0 310 / 111018.1 -2.5 18.9
2018-Apr-08 14:00N 42°06' W 080°06'0 0.0 330 / 141017.8 -2.6 18.9
2018-Apr-08 13:00N 42°06' W 080°06'0 0.0 340 / 141017.4 -2.3 18.9
2018-Apr-08 12:00N 42°06' W 080°06'0 0.0 350 / 111017.1 -2.6 18.8
2018-Apr-08 11:00N 42°06' W 080°06'0 0.0 340 / 141016.4 -2.3 18.8
2018-Apr-08 10:00N 42°06' W 080°06'0 0.0 300 / 91016.1 -1.6 18.9
2018-Apr-08 09:00N 42°06' W 080°06'0 0.0 320 / 101015.7 -1.7 18.9
2018-Apr-08 08:00N 42°06' W 080°06'0 0.0 350 / 101015.4 -1.6 18.9
2018-Apr-08 07:00N 42°06' W 080°06'0 0.0 360 / 81015.4 -1.6 19.0
2018-Apr-08 06:00N 42°06' W 080°06'0 0.0 340 / 91015.4 -1.9 19.1
2018-Apr-08 05:00N 42°06' W 080°06'0 0.0 350 / 111015.7 -1.5 19.3
2018-Apr-08 04:00N 42°06' W 080°06'0 0.0 150 / 51016.1 -1.3 19.3
2018-Apr-08 03:00N 42°06' W 080°06'0 0.0 120 / 51016.4 -1.3 19.3
2018-Apr-08 02:00N 42°06' W 080°06'0 0.0 220 / 31016.4 -1.1 19.2
2018-Apr-08 01:00N 42°06' W 080°06'0 0.0 220 / 61016.4 -1.4 19.2
2018-Apr-08 00:00N 42°06' W 080°06'0 0.0 230 / 71016.4 -1.3 19.3
2018-Apr-07 23:00N 42°06' W 080°06'0 0.0 260 / 111016.8 -1.4 19.2
2018-Apr-07 22:00N 42°06' W 080°06'0 0.0 260 / 91017.1 -1.2 19.0
2018-Apr-07 21:00N 42°06' W 080°06'0 0.0 260 / 121017.1 -1.6 19.2
2018-Apr-07 20:00N 42°06' W 080°06'0 0.0 270 / 111017.1 -1.8 19.2
2018-Apr-07 19:00N 42°06' W 080°06'0 0.0 280 / 111017.1 -2.2 19.3
2018-Apr-07 18:00N 42°06' W 080°06'0 0.0 280 / 111017.4 -2.6 19.2
2018-Apr-07 17:00N 42°06' W 080°06'0 0.0 290 / 131017.8 -2.8 19.3
2018-Apr-07 16:00N 42°06' W 080°06'0 0.0 280 / 121018.1 -2.8 19.1
2018-Apr-07 15:00N 42°06' W 080°06'0 0.0 270 / 131018.1 -3.3 19.0
2018-Apr-07 14:00N 42°06' W 080°06'0 0.0 310 / 121018.1 -3.0 19.1
2018-Apr-07 13:00N 42°06' W 080°06'0 0.0 320 / 141018.1 -3.0 19.1
2018-Apr-07 12:00N 42°06' W 080°06'0 0.0 290 / 121017.8 -3.0 19.1
2018-Apr-07 11:00N 42°06' W 080°06'0 0.0 320 / 71017.1 -2.9 19.1
2018-Apr-07 10:00N 42°06' W 080°06'0 0.0 330 / 111016.8 -2.4 19.0
2018-Apr-07 09:00N 42°06' W 080°06'0 0.0 290 / 81016.1 -2.3 19.1
2018-Apr-07 07:00N 42°06' W 080°06'0 0.0 270 / 91015.4 -1.5 18.9
2018-Apr-07 06:00N 42°06' W 080°06'0 0.0 310 / 191015.1 -1.1 19.1
2018-Apr-07 05:00N 42°06' W 080°06'0 0.0 270 / 71014.4 -1.3 19.2
2018-Apr-07 04:00N 42°06' W 080°06'0 0.0 320 / 91013.4 -1.3 19.1
2018-Apr-07 03:00N 42°06' W 080°06'0 0.0 290 / 151012.4 0.1 19.2
2018-Apr-07 02:00N 42°06' W 080°06'0 0.0 300 / 181011.7 0.3 19.3
2018-Apr-07 01:00N 42°06' W 080°06'0 0.0 250 / 141010.3 2.1 19.2
2018-Apr-07 00:00N 42°06' W 080°06'0 0.0 270 / 201009.6 0.1 19.4
2018-Apr-06 23:00N 42°06' W 080°06'0 0.0 280 / 201009.0 3.2 19.5
2018-Apr-06 22:00N 42°06' W 080°06'0 0.0 260 / 181008.0 3.9 19.3
2018-Apr-06 21:00N 42°06' W 080°06'0 0.0 240 / 191007.6 4.3 19.3
2018-Apr-06 20:00N 42°06' W 080°06'0 0.0 240 / 211007.3 4.2 19.3
2018-Apr-06 19:00N 42°06' W 080°06'0 0.0 250 / 171007.6 3.8 19.2
2018-Apr-06 18:00N 42°06' W 080°06'0 0.0 240 / 211007.6 3.4 19.3
2018-Apr-06 17:00N 42°06' W 080°06'0 0.0 250 / 171007.3 3.7 19.4
2018-Apr-06 16:00N 42°06' W 080°06'0 0.0 250 / 171007.3 4.0 19.4
2018-Apr-06 15:00N 42°06' W 080°06'0 0.0 240 / 181006.9 5.5 18.9
2018-Apr-06 14:00N 42°06' W 080°06'0 0.0 220 / 121007.6 4.5 19.1
2018-Apr-06 13:00N 42°06' W 080°06'0 0.0 220 / 151007.6 2.9 19.1
2018-Apr-06 12:00N 42°06' W 080°06'0 0.0 090 / 61009.3 1.0 19.2
2018-Apr-06 11:00N 42°06' W 080°06'0 0.0 160 / 91010.7 -0.0 19.2
2018-Apr-06 10:00N 42°06' W 080°06'0 0.0 160 / 81012.0 -0.4 19.2
2018-Apr-06 09:00N 42°06' W 080°06'0 0.0 160 / 121013.4 1.0 19.2
2018-Apr-06 08:00N 42°06' W 080°06'0 0.0 170 / 111014.4 1.2 19.2
2018-Apr-06 07:00N 42°06' W 080°06'0 0.0 170 / 121015.7 0.8 19.3
2018-Apr-06 06:00N 42°06' W 080°06'0 0.0 170 / 121016.8 1.1 19.3
2018-Apr-06 05:00N 42°06' W 080°06'0 0.0 160 / 121017.1 1.1 19.3
2018-Apr-06 04:00N 42°06' W 080°06'0 0.0 170 / 101017.8 0.8 19.4
2018-Apr-06 03:00N 42°06' W 080°06'0 0.0 150 / 81017.8 0.6 19.4
2018-Apr-06 02:00N 42°06' W 080°06'0 0.0 170 / 81018.1 0.8 19.3
2018-Apr-06 01:00N 42°06' W 080°06'0 0.0 180 / 51018.8 0.7 19.3
2018-Apr-06 00:00N 42°06' W 080°06'0 0.0 240 / 51019.5 0.6 19.4
2018-Apr-05 23:00N 42°06' W 080°06'0 0.0 280 / 71020.1 0.8 19.5
2018-Apr-05 22:00N 42°06' W 080°06'0 0.0 250 / 131020.5 0.7 19.4
2018-Apr-05 21:00N 42°06' W 080°06'0 0.0 260 / 161020.8 0.5 19.4
2018-Apr-05 20:00N 42°06' W 080°06'0 0.0 260 / 181021.5 0.2 19.4
2018-Apr-05 19:00N 42°06' W 080°06'0 0.0 290 / 161022.2 -0.4 19.5
2018-Apr-05 18:00N 42°06' W 080°06'0 0.0 270 / 191021.8 -0.5 19.4
2018-Apr-05 17:00N 42°06' W 080°06'0 0.0 280 / 141022.2 -1.1 19.4
2018-Apr-05 16:00N 42°06' W 080°06'0 0.0 280 / 141022.2 -1.6 19.5
2018-Apr-05 15:00N 42°06' W 080°06'0 0.0 270 / 141022.2 -0.9 19.3
2018-Apr-05 14:00N 42°06' W 080°06'0 0.0 270 / 151021.8 -1.1 19.4
2018-Apr-05 13:00N 42°06' W 080°06'0 0.0 270 / 121021.8 -1.3 19.4
2018-Apr-05 12:00N 42°06' W 080°06'0 0.0 280 / 151021.5 -1.7 19.2
2018-Apr-05 11:00N 42°06' W 080°06'0 0.0 290 / 201021.2 -1.7 19.3
2018-Apr-05 10:00N 42°06' W 080°06'0 0.0 280 / 161021.2 -1.8 19.3
2018-Apr-05 09:00N 42°06' W 080°06'0 0.0 290 / 191021.2 -2.2 19.3
2018-Apr-05 08:00N 42°06' W 080°06'0 0.0 270 / 151021.2 -1.9 19.4
2018-Apr-05 07:00N 42°06' W 080°06'0 0.0 290 / 221020.5 -1.8 19.6
2018-Apr-05 06:00N 42°06' W 080°06'0 0.0 300 / 191020.5 -2.0 19.6
2018-Apr-05 05:00N 42°06' W 080°06'0 0.0 280 / 181020.1 -1.9 19.7
2018-Apr-05 04:00N 42°06' W 080°06'0 0.0 290 / 201019.8 -1.3 19.8
2018-Apr-05 03:00N 42°06' W 080°06'0 0.0 260 / 201019.5 -1.4 19.6
2018-Apr-05 02:00N 42°06' W 080°06'0 0.0 300 / 231018.5 -0.3 19.6
2018-Apr-05 01:00N 42°06' W 080°06'0 0.0 290 / 221017.1 -0.1 19.6
2018-Apr-05 00:00N 42°06' W 080°06'0 0.0
2018-Apr-04 23:00N 42°06' W 080°06'0 0.0 280 / 301013.7 0.8 19.6
2018-Apr-04 22:00N 42°06' W 080°06'0 0.0 250 / 271012.7 0.7 19.7
2018-Apr-04 21:00N 42°06' W 080°06'0 0.0 270 / 291011.3 1.3 19.6
2018-Apr-04 20:00N 42°06' W 080°06'0 0.0 260 / 341010.3 1.0 19.6
2018-Apr-04 19:00N 42°06' W 080°06'0 0.0 260 / 321008.6 1.9 19.7
2018-Apr-04 18:00N 42°06' W 080°06'0 0.0 260 / 281007.6 1.5 19.7
2018-Apr-04 17:00N 42°06' W 080°06'0 0.0 250 / 271005.9 1.6 19.8
2018-Apr-04 16:00N 42°06' W 080°06'0 0.0 240 / 341004.2 2.7 19.8
2018-Apr-04 15:00N 42°06' W 080°06'0 0.0 240 / 341002.5 3.5 19.8
2018-Apr-04 14:00N 42°06' W 080°06'0 0.0 240 / 341001.2 4.0 19.9
2018-Apr-04 13:00N 42°06' W 080°06'0 0.0 250 / 31999.8 4.0 19.8
2018-Apr-04 12:00N 42°06' W 080°06'0 0.0 250 / 34999.5 3.0 19.8
2018-Apr-04 11:00N 42°06' W 080°06'0 0.0 250 / 30999.1 3.8 19.9
2018-Apr-04 10:00N 42°06' W 080°06'0 0.0 250 / 19997.5 3.8 19.9
2018-Apr-04 09:00N 42°06' W 080°06'0 0.0 250 / 23996.1 4.8 19.8
2018-Apr-04 08:00N 42°06' W 080°06'0 0.0 260 / 21995.4 6.7 19.8
2018-Apr-04 07:00N 42°06' W 080°06'0 0.0 190 / 12994.1 15.9 19.8
2018-Apr-04 06:00N 42°06' W 080°06'0 0.0 180 / 9995.4 15.1 19.6
2018-Apr-04 05:00N 42°06' W 080°06'0 0.0 200 / 14996.8 14.3 19.7
2018-Apr-04 04:00N 42°06' W 080°06'0 0.0 210 / 22997.1 15.9 19.7
2018-Apr-04 03:00N 42°06' W 080°06'0 0.0 200 / 13997.5 15.9 19.7
2018-Apr-04 02:00N 42°06' W 080°06'0 0.0 190 / 12998.5 15.6 19.6
2018-Apr-04 01:00N 42°06' W 080°06'0 0.0 180 / 6999.5 7.8 19.6
2018-Apr-04 00:00N 42°06' W 080°06'0 0.0 090 / 61001.9 2.3 19.8
2018-Apr-03 23:00N 42°06' W 080°06'0 0.0 080 / 91002.5 2.0 19.9
2018-Apr-03 22:00N 42°06' W 080°06'0 0.0 080 / 71002.9 3.1 19.9
2018-Apr-03 21:00N 42°06' W 080°06'0 0.0 080 / 91005.6 2.0 20.0
2018-Apr-03 20:00N 42°06' W 080°06'0 0.0 050 / 91006.9 2.0 20.1
2018-Apr-03 19:00N 42°06' W 080°06'0 0.0 070 / 71008.0 2.2 20.0
2018-Apr-03 18:00N 42°06' W 080°06'0 0.0 060 / 111009.3 1.5 20.0
2018-Apr-03 17:00N 42°06' W 080°06'0 0.0 050 / 131010.0 1.5 20.0
2018-Apr-03 16:00N 42°06' W 080°06'0 0.0 070 / 131010.3 1.3 20.1
2018-Apr-03 15:00N 42°06' W 080°06'0 0.0 050 / 101012.0 1.6 20.1
2018-Apr-03 14:00N 42°06' W 080°06'0 0.0 060 / 81012.0 1.7 20.0
2018-Apr-03 13:00N 42°06' W 080°06'0 0.0 030 / 41012.4 2.9 20.0
2018-Apr-03 12:00N 42°06' W 080°06'0 0.0 070 / 31013.4 3.0 20.0
2018-Apr-03 11:00N 42°06' W 080°06'0 0.0 050 / 31013.4 2.7 20.0
2018-Apr-03 10:00N 42°06' W 080°06'0 0.0 070 / 61013.4 3.6 19.7
2018-Apr-03 09:00N 42°06' W 080°06'0 0.0 100 / 61015.1 3.6 19.7
2018-Apr-03 08:00N 42°06' W 080°06'0 0.0 080 / 41015.7 2.3 20.1
2018-Apr-03 07:00N 42°06' W 080°06'0 0.0 070 / 51016.8 1.8 20.2
2018-Apr-03 06:00N 42°06' W 080°06'0 0.0 080 / 51017.1 1.6 20.2
2018-Apr-03 05:00N 42°06' W 080°06'0 0.0 060 / 31018.1 1.9 19.9
2018-Apr-03 04:00N 42°06' W 080°06'0 0.0 040 / 11017.8 2.4 19.9
2018-Apr-03 03:00N 42°06' W 080°06'0 0.0 060 / 31018.5 1.7 20.0
2018-Apr-03 02:00N 42°06' W 080°06'0 0.0 100 / 31019.1 1.8 20.0
2018-Apr-03 01:00N 42°06' W 080°06'0 0.0 130 / 41018.8 1.5 20.0
2018-Apr-03 00:00N 42°06' W 080°06'0 0.0 040 / 11019.8 0.9 20.0
2018-Apr-02 23:00N 42°06' W 080°06'0 0.0 100 / 11019.8 0.9 20.2
2018-Apr-02 22:00N 42°06' W 080°06'0 0.0 340 / 51019.8 0.5 20.1
2018-Apr-02 21:00N 42°06' W 080°06'0 0.0 280 / 31019.8 0.9 20.0
2018-Apr-02 20:00N 42°06' W 080°06'0 0.0 280 / 31020.5 1.0 20.0
2018-Apr-02 19:00N 42°06' W 080°06'0 0.0 310 / 71021.2 0.8 20.1
2018-Apr-02 18:00N 42°06' W 080°06'0 0.0 310 / 81021.2 0.4 19.9
2018-Apr-02 17:00N 42°06' W 080°06'0 0.0 300 / 91021.2 0.4 19.7
2018-Apr-02 16:00N 42°06' W 080°06'0 0.0 280 / 61021.2 0.2 19.7
2018-Apr-02 15:00N 42°06' W 080°06'0 0.0 270 / 61021.5 0.2 19.8
2018-Apr-02 14:00N 42°06' W 080°06'0 0.0 320 / 51021.2 0.3 19.7
2018-Apr-02 13:00N 42°06' W 080°06'0 0.0 320 / 61020.5 0.1 19.6
2018-Apr-02 12:00N 42°06' W 080°06'0 0.0 310 / 61020.1 0.6 19.7
2018-Apr-02 11:00N 42°06' W 080°06'0 0.0 220 / 31019.5 0.3 19.5
2018-Apr-02 10:00N 42°06' W 080°06'0 0.0 230 / 41019.5 0.5 19.6
2018-Apr-02 09:00N 42°06' W 080°06'0 0.0 210 / 31018.8 0.1 19.7
2018-Apr-02 08:00N 42°06' W 080°06'0 0.0 210 / 41018.5 0.4 19.7
2018-Apr-02 07:00N 42°06' W 080°06'0 0.0 230 / 41018.5 1.0 19.8
2018-Apr-02 06:00N 42°06' W 080°06'0 0.0 140 / 51018.8 1.2 19.9
2018-Apr-02 05:00N 42°06' W 080°06'0 0.0 170 / 71018.8 1.1 19.8
2018-Apr-02 04:00N 42°06' W 080°06'0 0.0 180 / 71019.5 1.0 19.5
2018-Apr-02 03:00N 42°06' W 080°06'0 0.0 110 / 41019.8 0.8 19.6
2018-Apr-02 02:00N 42°06' W 080°06'0 0.0 060 / 21020.1 0.8 19.5
2018-Apr-02 01:00N 42°06' W 080°06'0 0.0 240 / 21020.5 0.7 19.6
2018-Apr-02 00:00N 42°06' W 080°06'0 0.0 230 / 41020.8 0.3 19.6
2018-Apr-01 23:00N 42°06' W 080°06'0 0.0 250 / 21021.5 0.1 19.6
2018-Apr-01 22:00N 42°06' W 080°06'0 0.0 250 / 41022.2 -0.3 19.6
2018-Apr-01 21:00N 42°06' W 080°06'0 0.0 270 / 51022.5 -0.4 19.6
2018-Apr-01 20:00N 42°06' W 080°06'0 0.0 280 / 81022.5 -0.6 19.5
2018-Apr-01 19:00N 42°06' W 080°06'0 0.0 290 / 91022.5 -1.2 19.4
2018-Apr-01 18:00N 42°06' W 080°06'0 0.0 300 / 91022.9 -1.2 19.4
2018-Apr-01 17:00N 42°06' W 080°06'0 0.0 290 / 61023.2 -1.0 19.6
2018-Apr-01 16:00N 42°06' W 080°06'0 0.0 280 / 71023.2 -1.2 19.3
2018-Apr-01 15:00N 42°06' W 080°06'0 0.0 310 / 91023.2 -1.2 19.3
2018-Apr-01 14:00N 42°06' W 080°06'0 0.0 290 / 141022.2 -1.3 19.2
2018-Apr-01 13:00N 42°06' W 080°06'0 0.0 330 / 161021.8 -0.8 19.2
2018-Apr-01 12:00N 42°06' W 080°06'0 0.0 310 / 141020.8 -0.4 19.3
2018-Apr-01 11:00N 42°06' W 080°06'0 0.0 310 / 121019.8 -0.2 19.2
2018-Apr-01 10:00N 42°06' W 080°06'0 0.0 330 / 111019.5 -0.2 19.3
2018-Apr-01 09:00N 42°06' W 080°06'0 0.0 310 / 131019.1 -0.2 19.2
2018-Apr-01 08:00N 42°06' W 080°06'0 0.0 270 / 151018.1 0.2 19.2
2018-Apr-01 07:00N 42°06' W 080°06'0 0.0 300 / 161017.1 1.3 19.4
2018-Apr-01 06:00N 42°06' W 080°06'0 0.0 280 / 91015.4 1.6 19.3
2018-Apr-01 05:00N 42°06' W 080°06'0 0.0 260 / 211013.0 4.9 19.0
2018-Apr-01 04:00N 42°06' W 080°06'0 0.0 240 / 161011.7 10.1 18.9
2018-Apr-01 03:00N 42°06' W 080°06'0 0.0 200 / 131011.7 11.7 19.3
2018-Apr-01 02:00N 42°06' W 080°06'0 0.0 210 / 131012.0 11.5 19.2
2018-Apr-01 01:00N 42°06' W 080°06'0 0.0 230 / 171012.0 10.8 19.1
2018-Apr-01 00:00N 42°06' W 080°06'0 0.0 210 / 151012.0 10.2 19.0
2018-Mar-31 23:00N 42°06' W 080°06'0 0.0 220 / 161012.0 9.9 19.0
2018-Mar-31 22:00N 42°06' W 080°06'0 0.0 210 / 171012.0 10.6 19.1
2018-Mar-31 21:00N 42°06' W 080°06'0 0.0 210 / 161012.7 11.3 19.2
2018-Mar-31 20:00N 42°06' W 080°06'0 0.0 170 / 121014.4 11.4 19.0
2018-Mar-31 19:00N 42°06' W 080°06'0 0.0 200 / 161016.4 10.9 19.1
2018-Mar-31 18:00N 42°06' W 080°06'0 0.0 220 / 91018.5 10.7 19.1
2018-Mar-31 17:00N 42°06' W 080°06'0 0.0 210 / 131020.1 9.2 19.1
2018-Mar-31 16:00N 42°06' W 080°06'0 0.0 220 / 91021.5 7.8 19.2
2018-Mar-31 13:00N 42°06' W 080°06'0 0.0 160 / 121023.2 2.9 19.0
2018-Mar-31 12:00N 42°06' W 080°06'6 6.0 160 / 131024.5 1.0 18.9
2018-Mar-31 11:00N 42°12' W 080°06'0 0.0 180 / 121024.2 -0.1 17.9
2018-Mar-31 10:00N 42°12' W 080°06'9 8.9 190 / 131024.2 -0.5 17.3
2018-Mar-31 09:00N 42°12' W 080°18'7 7.5 190 / 121024.2 -0.3 17.3
2018-Mar-31 08:00N 42°06' W 080°24'4 4.5 180 / 121024.2 -0.8 17.2
2018-Mar-31 07:00N 42°06' W 080°30'4 4.5 200 / 101024.2 -0.2 17.4
2018-Mar-31 06:00N 42°06' W 080°36'1110.7 200 / 101024.5 -0.1 17.3
2018-Mar-31 05:00N 42°00' W 080°48'4 4.5 220 / 111024.5 0.2 17.5
2018-Mar-31 04:00N 42°00' W 080°54'1110.8 220 / 101024.5 0.2 17.5
2018-Mar-31 03:00N 41°54' W 081°06'4 4.5 200 / 81024.2 0.5 17.6
2018-Mar-31 02:00N 41°54' W 081°12'4 4.5 220 / 81024.5 0.8 17.6
2018-Mar-31 01:00N 41°54' W 081°18'7 7.5 220 / 71023.9 0.9 17.7
2018-Mar-31 00:00N 41°48' W 081°24'4 4.5 230 / 81023.5 1.0 17.8
2018-Mar-30 23:00N 41°48' W 081°30'7 7.5 260 / 61023.5 1.5 18.2
2018-Mar-30 22:00N 41°42' W 081°36'7 7.5 300 / 91023.2 2.1 18.5
2018-Mar-30 21:00N 41°36' W 081°42'6 6.0 300 / 111022.9 2.1 18.0
2018-Mar-30 20:00N 41°30' W 081°42'0 0.0 310 / 141022.5 0.7 21.2
2018-Mar-30 19:00N 41°30' W 081°42'0 0.0 310 / 101022.2 0.5 21.4
2018-Mar-30 18:00N 41°30' W 081°42'0 0.0 350 / 131022.2 0.4 21.5
2018-Mar-30 17:00N 41°30' W 081°42'0 0.0 340 / 141021.5 0.3 21.4
2018-Mar-30 16:00N 41°30' W 081°42'0 0.0 1021.2 0.5 21.5
2018-Mar-30 15:00N 41°30' W 081°42'0 0.0 350 / 141020.8 0.5 21.4
2018-Mar-30 14:00N 41°30' W 081°42'0 0.0 360 / 191019.5 0.4 21.5
2018-Mar-30 13:00N 41°30' W 081°42'0 0.0 360 / 171018.8 0.7 21.5
2018-Mar-30 12:00N 41°30' W 081°42'0 0.0 1017.1 0.8 21.6
2018-Mar-30 11:00N 41°30' W 081°42'0 0.0 350 / 151016.1 1.3 21.6
2018-Mar-30 10:00N 41°30' W 081°42'0 0.0 020 / 121015.4 1.7 21.7
2018-Mar-30 09:00N 41°30' W 081°42'0 0.0 020 / 131015.4 1.8 21.8
2018-Mar-30 08:00N 41°30' W 081°42'   020 / 141014.0 2.1 21.7

Dump ship's entire track history